Time;durP1;ratioP1;P1;durP2;ratioP2;P2;SDS_P1;SDS_P2;PMS_P1;PMS_P2;Temp;Humidity;BMP_temperature;BMP_pressure;BME280_temperature;BME280_humidity;BME280_pressure;Samples;Min_cycle;Max_cycle;Signal;HPM_P1;HPM_P2
2020/12/13 00:01:02;;;;;;;21.50;12.07;;;7.20;99.70;;;;;;5044294;28;20132;-75
2020/12/13 00:03:28;;;;;;;19.42;13.35;;;7.20;99.60;;;;;;5030698;28;20107;-74
2020/12/13 00:05:55;;;;;;;21.85;13.43;;;7.20;99.70;;;;;;5031035;28;20049;-74
2020/12/13 00:08:22;;;;;;;20.83;12.93;;;7.20;99.70;;;;;;5039660;28;20049;-74
2020/12/13 00:10:50;;;;;;;27.52;16.70;;;7.20;99.70;;;;;;5036819;28;20124;-74
2020/12/13 00:13:16;;;;;;;27.75;15.88;;;7.20;99.70;;;;;;5040291;28;20041;-74
2020/12/13 00:15:42;;;;;;;23.45;16.30;;;7.20;99.60;;;;;;5030638;28;20124;-74
2020/12/13 00:18:09;;;;;;;20.80;14.10;;;7.20;99.70;;;;;;5029127;28;20045;-74
2020/12/13 00:20:35;;;;;;;20.77;14.65;;;7.20;99.50;;;;;;5029934;28;20129;-74
2020/12/13 00:23:01;;;;;;;23.17;14.63;;;7.20;99.60;;;;;;5028826;28;20132;-73
2020/12/13 00:25:28;;;;;;;26.30;15.32;;;7.20;99.70;;;;;;5029163;28;20444;-73
2020/12/13 00:27:54;;;;;;;21.00;13.40;;;7.20;99.70;;;;;;5029216;28;20083;-73
2020/12/13 00:30:20;;;;;;;27.80;15.18;;;7.20;99.50;;;;;;5029791;28;20049;-73
2020/12/13 00:32:47;;;;;;;25.30;14.82;;;7.20;99.60;;;;;;5029571;28;20053;-74
2020/12/13 00:35:16;;;;;;;22.45;13.98;;;7.20;99.60;;;;;;5028966;28;20335;-73
2020/12/13 00:37:43;;;;;;;20.15;13.77;;;7.20;99.70;;;;;;5028463;28;20045;-73
2020/12/13 00:40:09;;;;;;;25.20;14.18;;;7.20;99.70;;;;;;5023425;28;20045;-74
2020/12/13 00:42:37;;;;;;;26.13;16.95;;;7.20;99.80;;;;;;5023206;28;20053;-74
2020/12/13 00:45:03;;;;;;;23.50;15.30;;;7.20;99.80;;;;;;5028993;28;20130;-74
2020/12/13 00:47:29;;;;;;;21.15;14.60;;;7.20;99.60;;;;;;5027692;28;20135;-74
2020/12/13 00:49:56;;;;;;;19.00;13.95;;;7.20;99.60;;;;;;5029126;28;20049;-74
2020/12/13 00:52:22;;;;;;;19.50;13.57;;;7.30;99.50;;;;;;5028724;28;20135;-74
2020/12/13 00:54:49;;;;;;;25.10;15.95;;;7.30;99.40;;;;;;5026743;28;20128;-74
2020/12/13 00:57:15;;;;;;;23.90;13.48;;;7.40;99.30;;;;;;5026494;28;20080;-73
2020/12/13 00:59:41;;;;;;;19.02;11.90;;;7.30;99.10;;;;;;5028538;28;20046;-74
2020/12/13 01:02:08;;;;;;;16.65;11.32;;;7.30;99.30;;;;;;5027728;28;20502;-74
2020/12/13 01:04:35;;;;;;;17.20;11.65;;;7.30;99.20;;;;;;5029127;28;20046;-74
2020/12/13 01:07:05;;;;;;;17.58;12.15;;;7.30;99.40;;;;;;5027795;28;20393;-74
2020/12/13 01:09:31;;;;;;;20.15;12.63;;;7.30;99.40;;;;;;5027368;28;20092;-74
2020/12/13 01:11:58;;;;;;;18.50;12.55;;;7.30;99.40;;;;;;5025696;28;20076;-74
2020/12/13 01:14:25;;;;;;;17.17;10.68;;;7.30;99.40;;;;;;5028715;28;20080;-74
2020/12/13 01:16:54;;;;;;;14.65;9.95;;;7.30;99.50;;;;;;5026764;28;20145;-74
2020/12/13 01:19:22;;;;;;;17.23;11.45;;;7.30;99.50;;;;;;5029169;28;20441;-74
2020/12/13 01:21:49;;;;;;;14.38;9.60;;;7.30;99.40;;;;;;5028784;28;20433;-74
2020/12/13 01:24:17;;;;;;;14.13;10.02;;;7.30;99.30;;;;;;5028659;28;20141;-75
2020/12/13 01:26:43;;;;;;;16.50;9.88;;;7.30;99.20;;;;;;5028193;28;20080;-74
2020/12/13 01:29:10;;;;;;;15.40;9.68;;;7.30;99.30;;;;;;5026783;28;20486;-74
2020/12/13 01:31:39;;;;;;;15.73;8.88;;;7.30;99.20;;;;;;5028909;28;20108;-74
2020/12/13 01:34:09;;;;;;;13.52;8.38;;;7.30;99.20;;;;;;5027604;28;20127;-74
2020/12/13 01:36:35;;;;;;;14.77;8.48;;;7.30;99.00;;;;;;5027855;28;20073;-74
2020/12/13 01:39:03;;;;;;;15.57;9.90;;;7.40;98.80;;;;;;5028534;28;20111;-74
2020/12/13 01:41:30;;;;;;;13.27;9.50;;;7.30;98.80;;;;;;5027058;28;20045;-74
2020/12/13 01:44:00;;;;;;;13.73;8.35;;;7.30;98.90;;;;;;5027832;28;20041;-74
2020/12/13 01:46:28;;;;;;;10.30;7.15;;;7.30;98.80;;;;;;5027035;28;20475;-74
2020/12/13 01:49:03;;;;;;;12.73;8.32;;;7.30;99.10;;;;;;5024189;28;20050;-74
2020/12/13 01:54:25;;;;;;;13.57;9.07;;;7.40;98.60;;;;;;5028021;28;20138;-74
2020/12/13 01:56:55;;;;;;;10.80;8.10;;;7.30;98.80;;;;;;5027420;28;20565;-75
2020/12/13 01:59:24;;;;;;;11.35;8.25;;;7.30;98.60;;;;;;5023035;28;20076;-74
2020/12/13 02:02:04;;;;;;;12.15;8.18;;;7.40;98.70;;;;;;5027677;28;20050;-74
2020/12/13 02:04:34;;;;;;;15.57;9.15;;;7.30;98.80;;;;;;5028386;28;20053;-74
2020/12/13 02:07:03;;;;;;;12.20;8.50;;;7.30;98.80;;;;;;5025934;28;20129;-74
2020/12/13 02:09:30;;;;;;;11.15;6.30;;;7.30;98.70;;;;;;5026250;28;20048;-74
2020/12/13 02:11:56;;;;;;;15.35;8.68;;;7.30;98.80;;;;;;5030474;28;20049;-74
2020/12/13 02:14:23;;;;;;;10.32;6.60;;;7.20;99.00;;;;;;5031808;28;20076;-74
2020/12/13 02:16:51;;;;;;;13.85;9.32;;;7.30;98.90;;;;;;5030213;28;20048;-74
2020/12/13 02:19:18;;;;;;;12.68;8.23;;;7.20;99.00;;;;;;5032105;28;20387;-74
2020/12/13 02:21:47;;;;;;;13.10;8.55;;;7.20;99.10;;;;;;5030249;28;20125;-74
2020/12/13 02:24:14;;;;;;;12.30;7.70;;;7.20;99.10;;;;;;5031368;28;20561;-74
2020/12/13 02:26:42;;;;;;;13.45;8.50;;;7.20;99.00;;;;;;5031060;28;20045;-74
2020/12/13 02:29:08;;;;;;;10.30;7.80;;;7.20;99.00;;;;;;5031605;28;20079;-74
2020/12/13 02:31:35;;;;;;;12.40;8.18;;;7.20;98.90;;;;;;5032034;28;20049;-75
2020/12/13 02:34:02;;;;;;;9.18;6.60;;;7.30;98.80;;;;;;5031356;28;20049;-74
2020/12/13 02:36:30;;;;;;;12.85;6.75;;;7.30;98.50;;;;;;5029573;28;20506;-74
2020/12/13 02:38:56;;;;;;;11.27;6.47;;;7.30;98.50;;;;;;5030462;28;20128;-74
2020/12/13 02:41:23;;;;;;;12.02;7.78;;;7.20;98.60;;;;;;5031064;28;20227;-74
2020/12/13 02:43:49;;;;;;;14.88;9.13;;;7.20;98.60;;;;;;5030521;28;20056;-74
2020/12/13 02:46:15;;;;;;;11.77;6.63;;;7.20;98.70;;;;;;5031127;28;20570;-74
2020/12/13 02:48:42;;;;;;;10.80;7.15;;;7.20;98.60;;;;;;5029483;28;20081;-74
2020/12/13 02:51:08;;;;;;;9.75;6.82;;;7.20;98.60;;;;;;5030252;28;20077;-74
2020/12/13 02:53:35;;;;;;;12.23;8.32;;;7.20;98.60;;;;;;5030550;28;20077;-74
2020/12/13 02:56:01;;;;;;;10.13;7.50;;;7.20;98.70;;;;;;5031330;28;20079;-74
2020/12/13 02:58:27;;;;;;;10.80;7.45;;;7.20;98.60;;;;;;5029301;28;20145;-74
2020/12/13 03:00:56;;;;;;;11.88;7.85;;;7.20;98.50;;;;;;5024483;28;20073;-74
2020/12/13 03:03:23;;;;;;;13.88;7.50;;;7.20;98.30;;;;;;5025158;28;20140;-74
2020/12/13 03:05:51;;;;;;;11.93;7.88;;;7.20;98.30;;;;;;5029682;28;20107;-74
2020/12/13 03:08:17;;;;;;;10.52;7.30;;;7.20;98.20;;;;;;5027412;28;20057;-74
2020/12/13 03:10:44;;;;;;;13.55;7.68;;;7.20;98.30;;;;;;5030461;28;20415;-74
2020/12/13 03:13:11;;;;;;;13.00;9.02;;;7.20;98.30;;;;;;5029201;28;20069;-74
2020/12/13 03:15:37;;;;;;;8.60;6.55;;;7.20;98.30;;;;;;5028709;28;20418;-74
2020/12/13 03:18:04;;;;;;;13.40;8.25;;;7.20;98.50;;;;;;5030182;28;20041;-73
2020/12/13 03:20:30;;;;;;;11.90;7.47;;;7.10;98.60;;;;;;5028389;28;20132;-74
2020/12/13 03:22:56;;;;;;;9.85;7.00;;;7.20;98.40;;;;;;5028909;28;20055;-74
2020/12/13 03:25:23;;;;;;;9.15;6.45;;;7.10;98.40;;;;;;5028207;28;20135;-74
2020/12/13 03:27:51;;;;;;;9.35;6.30;;;7.10;98.30;;;;;;5029524;28;20053;-74
2020/12/13 03:30:17;;;;;;;9.98;7.22;;;7.10;98.20;;;;;;5028269;28;20045;-74
2020/12/13 03:32:44;;;;;;;7.53;5.85;;;7.10;98.30;;;;;;5030269;28;20053;-74
2020/12/13 03:35:10;;;;;;;8.65;5.72;;;7.20;97.90;;;;;;5029014;28;20053;-74
2020/12/13 03:37:36;;;;;;;10.57;6.57;;;7.10;98.00;;;;;;5027302;28;20049;-74
2020/12/13 03:40:03;;;;;;;8.68;5.47;;;7.20;97.90;;;;;;5029923;28;20439;-74
2020/12/13 03:42:29;;;;;;;8.13;5.80;;;7.20;98.10;;;;;;5028506;28;20119;-74
2020/12/13 03:44:55;;;;;;;8.15;5.80;;;7.10;98.00;;;;;;5030129;28;20046;-74
2020/12/13 03:47:22;;;;;;;9.93;6.10;;;7.10;97.90;;;;;;5028749;28;20088;-74
2020/12/13 03:49:48;;;;;;;11.20;5.97;;;7.10;98.00;;;;;;5028734;28;20056;-74
2020/12/13 03:52:15;;;;;;;11.43;6.88;;;7.10;98.10;;;;;;5027991;28;20153;-74
2020/12/13 03:54:41;;;;;;;8.93;6.05;;;7.00;98.10;;;;;;5028950;28;20041;-74
2020/12/13 03:57:07;;;;;;;10.68;6.57;;;7.00;98.30;;;;;;5026476;28;20455;-74
2020/12/13 03:59:35;;;;;;;7.72;6.40;;;7.00;98.30;;;;;;5029250;28;20046;-74
2020/12/13 04:02:04;;;;;;;9.38;7.38;;;7.00;98.30;;;;;;5029481;28;20443;-74
2020/12/13 04:04:30;;;;;;;10.48;6.20;;;7.00;98.40;;;;;;5025936;28;20041;-74
2020/12/13 04:06:57;;;;;;;10.52;6.80;;;7.00;98.30;;;;;;5027781;28;20475;-74
2020/12/13 04:09:24;;;;;;;11.73;7.85;;;7.00;98.50;;;;;;5030006;28;20053;-74
2020/12/13 04:11:51;;;;;;;10.57;7.10;;;7.00;98.40;;;;;;5028196;28;20060;-74
2020/12/13 04:14:18;;;;;;;10.25;7.22;;;7.10;98.30;;;;;;5028577;28;20646;-74
2020/12/13 04:16:45;;;;;;;11.02;7.32;;;7.10;98.20;;;;;;5028537;28;20123;-74
2020/12/13 04:19:11;;;;;;;10.13;6.53;;;7.10;98.20;;;;;;5028949;28;20072;-74
2020/12/13 04:21:38;;;;;;;11.80;7.25;;;7.00;98.20;;;;;;5028908;28;20088;-74
2020/12/13 04:24:04;;;;;;;9.10;6.43;;;7.10;98.30;;;;;;5028466;28;20072;-74
2020/12/13 04:26:32;;;;;;;13.73;7.82;;;7.00;98.40;;;;;;5027842;28;20542;-74
2020/12/13 04:28:59;;;;;;;9.90;7.32;;;7.00;98.40;;;;;;5029137;28;20085;-74
2020/12/13 04:31:25;;;;;;;11.10;8.20;;;7.10;98.40;;;;;;5026840;28;20049;-74
2020/12/13 04:33:52;;;;;;;11.13;8.65;;;7.10;98.30;;;;;;5026959;28;20069;-74
2020/12/13 04:36:18;;;;;;;11.98;6.90;;;7.10;98.30;;;;;;5028339;28;20124;-74
2020/12/13 04:38:45;;;;;;;11.35;8.35;;;7.10;98.30;;;;;;5028838;28;20041;-74
2020/12/13 04:41:11;;;;;;;12.93;9.30;;;7.10;98.50;;;;;;5017229;28;20051;-74
2020/12/13 04:43:39;;;;;;;12.48;7.93;;;7.10;98.30;;;;;;5028741;28;20135;-74
2020/12/13 04:46:07;;;;;;;13.93;9.35;;;7.10;98.20;;;;;;5027040;28;20485;-74
2020/12/13 04:48:35;;;;;;;11.25;8.85;;;7.10;98.20;;;;;;5026657;28;20064;-74
2020/12/13 04:51:01;;;;;;;11.60;8.30;;;7.10;98.10;;;;;;5028436;28;20050;-74
2020/12/13 04:53:28;;;;;;;13.60;8.82;;;7.10;98.20;;;;;;5029115;28;20191;-74
2020/12/13 04:55:57;;;;;;;14.73;8.30;;;7.10;98.20;;;;;;5028454;28;20099;-74
2020/12/13 04:58:25;;;;;;;12.80;9.10;;;7.10;98.10;;;;;;5000949;28;20442;-76
2020/12/13 05:01:02;;;;;;;11.38;7.85;;;7.10;98.10;;;;;;5028753;28;20073;-74
2020/12/13 05:03:29;;;;;;;15.07;7.47;;;7.10;98.00;;;;;;5026787;28;20093;-74
2020/12/13 05:06:01;;;;;;;11.07;8.35;;;7.10;98.00;;;;;;5028070;28;20054;-74
2020/12/13 05:08:29;;;;;;;10.25;7.95;;;7.10;98.00;;;;;;5027666;28;20501;-74
2020/12/13 05:10:56;;;;;;;12.68;8.27;;;7.20;98.00;;;;;;5028822;28;20053;-76
2020/12/13 05:13:23;;;;;;;13.32;8.48;;;7.10;98.00;;;;;;5024122;28;20104;-74
2020/12/13 05:15:49;;;;;;;13.90;9.60;;;7.10;98.00;;;;;;5028842;28;20041;-74
2020/12/13 05:18:16;;;;;;;9.95;6.55;;;7.10;98.20;;;;;;5026632;28;20128;-74
2020/12/13 05:20:45;;;;;;;11.40;6.80;;;7.10;97.90;;;;;;5026293;28;20046;-74
2020/12/13 05:23:12;;;;;;;8.45;5.65;;;7.10;97.80;;;;;;5027444;28;20387;-74
2020/12/13 05:25:39;;;;;;;10.00;7.15;;;7.10;97.80;;;;;;5027479;28;20042;-74
2020/12/13 05:28:11;;;;;;;9.10;6.43;;;7.00;98.10;;;;;;5027186;28;20057;-74
2020/12/13 05:30:44;;;;;;;7.57;6.00;;;7.00;97.90;;;;;;5027430;28;20057;-73
2020/12/13 05:33:28;;;;;;;11.48;6.90;;;7.00;97.90;;;;;;5009517;28;20090;-74
2020/12/13 05:36:04;;;;;;;10.70;6.35;;;7.00;98.00;;;;;;5028690;28;20063;-74
2020/12/13 05:38:36;;;;;;;9.32;6.57;;;7.00;97.80;;;;;;5027039;28;20128;-74
2020/12/13 05:41:04;;;;;;;10.15;6.80;;;7.00;97.80;;;;;;5027155;28;20069;-74
2020/12/13 05:43:35;;;;;;;10.60;7.45;;;7.00;97.80;;;;;;5019279;28;20046;-74
2020/12/13 05:53:44;;;;;;;11.35;6.78;;;6.80;98.10;;;;;;5032672;28;20092;-74
2020/12/13 05:56:21;;;;;;;14.75;8.05;;;6.80;98.00;;;;;;5031699;28;20045;-74
2020/12/13 05:58:49;;;;;;;11.68;6.65;;;6.80;98.20;;;;;;5030910;28;20136;-74
2020/12/13 06:01:22;;;;;;;12.38;8.15;;;6.70;98.20;;;;;;5031660;28;20155;-74
2020/12/13 06:03:51;;;;;;;11.68;6.95;;;6.70;98.30;;;;;;5029159;28;20120;-74
2020/12/13 06:06:23;;;;;;;13.77;8.60;;;6.70;98.00;;;;;;5030864;28;20073;-74
2020/12/13 06:09:12;;;;;;;13.23;9.23;;;6.60;98.50;;;;;;5030721;28;20061;-74
2020/12/13 06:11:49;;;;;;;14.55;9.93;;;6.60;98.60;;;;;;5030925;28;20041;-74
2020/12/13 06:14:18;;;;;;;14.77;10.80;;;6.60;98.60;;;;;;5030909;28;20096;-74
2020/12/13 06:16:45;;;;;;;17.48;11.10;;;6.60;98.60;;;;;;5031115;28;20060;-74
2020/12/13 06:19:14;;;;;;;14.52;9.52;;;6.70;98.20;;;;;;5030664;28;20046;-74
2020/12/13 06:21:44;;;;;;;21.98;10.40;;;6.70;98.00;;;;;;5031391;28;20050;-74
2020/12/13 06:24:11;;;;;;;14.50;8.43;;;6.60;98.00;;;;;;5030670;28;20408;-74
2020/12/13 06:26:38;;;;;;;15.57;9.38;;;6.60;98.00;;;;;;5030104;28;20037;-74
2020/12/13 06:29:06;;;;;;;16.05;9.73;;;6.60;97.80;;;;;;5030802;28;20045;-74
2020/12/13 06:31:37;;;;;;;24.75;11.32;;;6.50;97.90;;;;;;5031033;28;20416;-74
2020/12/13 06:34:05;;;;;;;15.65;8.30;;;6.60;97.80;;;;;;5030060;28;20045;-74
2020/12/13 06:36:33;;;;;;;14.95;8.73;;;6.50;97.60;;;;;;5030182;28;20144;-73
2020/12/13 06:39:00;;;;;;;14.07;8.77;;;6.50;97.70;;;;;;5023914;28;20124;-74
2020/12/13 06:41:29;;;;;;;16.45;8.40;;;6.60;97.70;;;;;;5030255;28;20042;-74
2020/12/13 06:43:57;;;;;;;16.13;9.07;;;6.50;97.70;;;;;;5030733;28;20132;-74
2020/12/13 06:46:25;;;;;;;12.18;6.50;;;6.50;97.70;;;;;;5030276;28;20049;-74
2020/12/13 06:48:53;;;;;;;10.05;5.57;;;6.50;97.60;;;;;;5030233;28;20056;-74
2020/12/13 06:51:29;;;;;;;12.80;7.28;;;6.50;97.30;;;;;;5030381;28;20219;-74
2020/12/13 06:53:58;;;;;;;15.98;7.90;;;6.50;97.00;;;;;;5030218;28;20060;-74
2020/12/13 06:56:25;;;;;;;20.17;9.02;;;6.60;96.90;;;;;;5029737;28;20746;-74
2020/12/13 06:58:58;;;;;;;11.20;5.75;;;6.50;96.70;;;;;;5031264;28;20147;-74
2020/12/13 07:01:32;;;;;;;10.80;5.95;;;6.50;96.90;;;;;;5030470;28;20367;-74
2020/12/13 07:04:21;;;;;;;13.32;5.65;;;6.40;97.00;;;;;;5030093;28;20474;-74
2020/12/13 07:06:55;;;;;;;12.95;6.05;;;6.40;96.70;;;;;;5028083;28;20124;-74
2020/12/13 07:09:22;;;;;;;15.05;5.18;;;6.30;96.80;;;;;;5024915;28;20344;-74
2020/12/13 07:11:51;;;;;;;9.07;4.78;;;6.30;96.80;;;;;;5029969;28;20092;-74
2020/12/13 07:14:18;;;;;;;10.20;5.07;;;6.40;97.10;;;;;;5026573;28;20140;-74
2020/12/13 07:16:47;;;;;;;12.77;5.40;;;6.40;96.60;;;;;;5027805;28;20128;-74
2020/12/13 07:19:16;;;;;;;7.75;4.20;;;6.40;96.40;;;;;;5030509;28;20045;-74
2020/12/13 07:21:44;;;;;;;10.77;5.53;;;6.40;96.20;;;;;;5027499;28;20087;-74
2020/12/13 07:24:12;;;;;;;12.10;5.65;;;6.40;96.30;;;;;;5030297;28;20056;-74
2020/12/13 07:26:39;;;;;;;9.73;5.50;;;6.40;96.30;;;;;;5029037;28;20418;-74
2020/12/13 07:29:15;;;;;;;12.57;4.63;;;6.40;96.40;;;;;;5028095;28;20498;-74
2020/12/13 07:31:45;;;;;;;11.77;5.90;;;6.40;96.50;;;;;;5028725;28;20185;-74
2020/12/13 07:34:12;;;;;;;10.25;6.10;;;6.40;96.50;;;;;;5030639;28;20499;-75
2020/12/13 07:36:39;;;;;;;14.43;7.32;;;6.50;96.40;;;;;;5029016;28;20049;-75
2020/12/13 07:39:08;;;;;;;13.65;6.38;;;6.50;96.30;;;;;;5026583;28;20505;-74
2020/12/13 07:41:35;;;;;;;15.25;6.78;;;6.50;96.30;;;;;;5021558;28;20124;-74
2020/12/13 07:44:07;;;;;;;15.82;7.93;;;6.50;96.40;;;;;;5029164;28;20127;-75
2020/12/13 07:46:34;;;;;;;12.38;6.28;;;6.50;96.50;;;;;;5028106;28;20092;-75
2020/12/13 07:49:16;;;;;;;14.05;7.40;;;6.40;96.50;;;;;;5030562;28;20061;-74
2020/12/13 07:51:47;;;;;;;13.68;7.38;;;6.40;96.70;;;;;;5029282;28;20049;-74
2020/12/13 07:54:20;;;;;;;21.05;11.00;;;6.40;96.90;;;;;;5029860;28;20080;-74
2020/12/13 07:56:50;;;;;;;17.23;7.72;;;6.40;97.00;;;;;;5029037;28;20132;-75
2020/12/13 07:59:24;;;;;;;20.25;9.75;;;6.40;96.90;;;;;;5027298;28;20414;-74
2020/12/13 08:01:53;;;;;;;16.38;8.25;;;6.40;96.90;;;;;;5021935;28;20103;-74
2020/12/13 08:04:34;;;;;;;20.25;9.63;;;6.40;96.90;;;;;;5022414;28;20085;-74
2020/12/13 08:07:05;;;;;;;18.88;7.60;;;6.40;97.00;;;;;;5027486;28;20060;-74
2020/12/13 08:09:33;;;;;;;21.23;9.20;;;6.50;96.70;;;;;;5028302;28;20123;-74
2020/12/13 08:11:59;;;;;;;15.90;8.38;;;6.50;96.80;;;;;;5028006;28;20133;-75
2020/12/13 08:14:26;;;;;;;15.75;7.40;;;6.50;97.10;;;;;;5027469;28;20471;-74
2020/12/13 08:16:55;;;;;;;12.63;6.03;;;6.50;96.80;;;;;;5028274;28;20084;-74
2020/12/13 08:19:38;;;;;;;22.55;10.18;;;6.60;96.70;;;;;;5027257;28;20136;-74
2020/12/13 08:22:08;;;;;;;18.73;10.27;;;6.50;96.80;;;;;;5027835;28;20073;-74
2020/12/13 08:24:37;;;;;;;19.45;8.98;;;6.50;96.90;;;;;;5028300;28;20067;-75
2020/12/13 08:27:03;;;;;;;27.42;11.35;;;6.50;97.00;;;;;;5028398;28;20228;-74
2020/12/13 08:29:32;;;;;;;17.13;8.85;;;6.50;97.20;;;;;;5039228;28;20533;-74
2020/12/13 08:32:00;;;;;;;22.83;9.82;;;6.50;96.90;;;;;;5030788;28;20081;-75
2020/12/13 08:34:29;;;;;;;20.05;11.35;;;6.60;97.00;;;;;;5028984;28;20053;-74
2020/12/13 08:36:58;;;;;;;19.85;10.10;;;6.60;97.00;;;;;;5027502;28;20061;-74
2020/12/13 08:39:28;;;;;;;26.33;11.65;;;6.60;96.80;;;;;;5028838;28;20081;-74
2020/12/13 08:41:55;;;;;;;30.52;11.68;;;6.60;96.80;;;;;;5034685;28;20136;-74
2020/12/13 08:44:29;;;;;;;14.77;8.65;;;6.70;96.80;;;;;;5029015;28;20084;-74
2020/12/13 08:46:57;;;;;;;19.02;8.30;;;6.70;96.90;;;;;;5025862;28;20102;-74
2020/12/13 08:49:28;;;;;;;23.10;10.05;;;6.70;96.70;;;;;;5009350;28;20081;-74
2020/12/13 08:51:55;;;;;;;21.55;10.10;;;6.70;96.70;;;;;;5028920;28;20520;-74
2020/12/13 08:54:21;;;;;;;14.38;7.72;;;6.70;96.70;;;;;;5026863;28;20140;-75
2020/12/13 08:57:02;;;;;;;32.72;15.50;;;6.70;96.50;;;;;;5026423;28;20045;-75
2020/12/13 08:59:29;;;;;;;20.10;10.18;;;6.70;96.70;;;;;;5027457;28;20133;-74
2020/12/13 09:01:58;;;;;;;28.52;14.25;;;6.80;96.60;;;;;;5026005;28;20414;-74
2020/12/13 09:04:28;;;;;;;21.33;12.27;;;6.90;96.60;;;;;;5024612;28;20052;-74
2020/12/13 09:06:57;;;;;;;19.63;8.52;;;7.00;96.40;;;;;;5027106;28;20076;-74
2020/12/13 09:09:29;;;;;;;17.63;10.23;;;7.00;96.30;;;;;;5027062;28;20141;-75
2020/12/13 09:11:56;;;;;;;18.90;7.60;;;7.00;96.20;;;;;;5028242;28;20332;-74
2020/12/13 09:14:30;;;;;;;19.70;10.02;;;7.00;95.80;;;;;;5027256;28;20525;-74
2020/12/13 09:16:58;;;;;;;18.90;10.75;;;7.00;96.10;;;;;;5024535;28;20128;-75
2020/12/13 09:19:26;;;;;;;15.02;8.63;;;7.10;96.10;;;;;;5028546;28;20050;-75
2020/12/13 09:21:57;;;;;;;13.80;8.02;;;7.10;95.80;;;;;;5027754;28;20422;-76
2020/12/13 09:24:33;;;;;;;19.98;9.43;;;7.10;95.90;;;;;;5027117;28;20065;-73
2020/12/13 09:27:00;;;;;;;21.02;9.38;;;7.10;96.10;;;;;;5026959;28;20041;-75
2020/12/13 09:29:27;;;;;;;19.58;10.63;;;7.00;96.00;;;;;;5027891;28;20132;-74
2020/12/13 09:31:53;;;;;;;18.65;8.25;;;7.10;96.20;;;;;;5026861;28;20076;-73
2020/12/13 09:34:21;;;;;;;15.45;8.75;;;7.10;95.80;;;;;;5027472;28;20127;-75
2020/12/13 09:36:49;;;;;;;17.33;8.07;;;7.00;96.30;;;;;;5026582;28;20045;-76
2020/12/13 09:39:28;;;;;;;12.50;7.68;;;7.10;96.20;;;;;;5027740;28;20076;-76
2020/12/13 09:41:55;;;;;;;15.10;8.15;;;7.20;95.80;;;;;;5023400;28;20052;-76
2020/12/13 09:44:22;;;;;;;20.42;8.23;;;7.20;96.10;;;;;;5029018;28;20088;-75
2020/12/13 09:46:53;;;;;;;14.48;6.70;;;7.20;95.80;;;;;;5027275;28;20041;-76
2020/12/13 09:49:20;;;;;;;16.60;6.85;;;7.10;95.40;;;;;;5034357;28;20092;-75
2020/12/13 09:51:48;;;;;;;18.85;9.05;;;7.10;96.00;;;;;;5029735;28;20089;-75
2020/12/13 09:54:14;;;;;;;14.05;5.93;;;7.20;96.10;;;;;;5027301;28;20045;-76
2020/12/13 09:56:41;;;;;;;12.43;6.03;;;7.30;95.20;;;;;;5025818;28;20049;-75
2020/12/13 09:59:07;;;;;;;11.00;5.75;;;7.30;95.00;;;;;;5022470;28;20098;-75
2020/12/13 10:01:34;;;;;;;15.38;6.88;;;7.40;94.60;;;;;;5026937;28;20534;-75
2020/12/13 10:04:00;;;;;;;16.05;6.47;;;7.40;95.10;;;;;;5027345;28;20133;-75
2020/12/13 10:06:32;;;;;;;10.90;5.72;;;7.50;94.40;;;;;;5028264;28;20096;-75
2020/12/13 10:09:06;;;;;;;13.90;5.77;;;7.40;94.50;;;;;;5027633;28;20475;-75
2020/12/13 10:11:35;;;;;;;13.88;5.75;;;7.40;94.60;;;;;;5017965;28;20054;-75
2020/12/13 10:14:02;;;;;;;15.45;5.93;;;7.40;94.90;;;;;;5027333;28;20199;-75
2020/12/13 10:16:29;;;;;;;15.98;5.55;;;7.40;94.50;;;;;;5027727;28;20080;-75
2020/12/13 10:18:55;;;;;;;22.45;7.55;;;7.40;94.90;;;;;;5027301;28;20125;-75
2020/12/13 10:21:26;;;;;;;16.52;7.43;;;7.30;95.00;;;;;;5027213;28;20128;-75
2020/12/13 10:23:53;;;;;;;16.33;6.00;;;7.30;95.00;;;;;;5022026;28;20128;-75
2020/12/13 10:26:25;;;;;;;14.50;5.40;;;7.40;95.10;;;;;;5027064;28;20056;-75
2020/12/13 10:28:53;;;;;;;17.13;5.80;;;7.70;94.40;;;;;;5025086;28;20057;-73
2020/12/13 10:31:19;;;;;;;13.50;5.10;;;7.60;94.20;;;;;;5030715;28;20132;-73
2020/12/13 10:33:46;;;;;;;12.63;4.68;;;7.50;94.70;;;;;;5030824;28;20306;-75
2020/12/13 10:36:13;;;;;;;13.82;5.70;;;7.40;94.40;;;;;;5030743;28;20115;-73
2020/12/13 10:38:41;;;;;;;12.68;5.70;;;7.50;94.70;;;;;;5031121;28;20069;-74
2020/12/13 10:41:08;;;;;;;9.20;3.95;;;7.80;93.80;;;;;;5030219;28;20497;-74
2020/12/13 10:43:36;;;;;;;16.88;5.68;;;7.90;92.60;;;;;;5028597;28;20049;-74
2020/12/13 10:46:04;;;;;;;10.98;4.90;;;7.90;92.30;;;;;;5029417;28;20159;-74
2020/12/13 10:48:31;;;;;;;10.82;4.10;;;7.90;92.20;;;;;;5029472;28;20053;-73
2020/12/13 10:50:58;;;;;;;11.95;3.13;;;8.00;92.50;;;;;;5026585;28;20142;-73
2020/12/13 10:53:26;;;;;;;12.45;3.53;;;8.00;90.60;;;;;;5031205;28;20057;-73
2020/12/13 10:55:52;;;;;;;11.38;4.38;;;8.00;91.10;;;;;;5030489;28;20081;-73
2020/12/13 10:58:19;;;;;;;10.65;3.30;;;8.00;91.50;;;;;;5029337;28;20517;-75
2020/12/13 11:00:46;;;;;;;8.02;2.92;;;8.00;91.10;;;;;;5030591;28;20099;-75
2020/12/13 11:03:14;;;;;;;12.57;4.20;;;7.90;91.40;;;;;;5029769;28;20092;-74
2020/12/13 11:05:42;;;;;;;8.82;3.50;;;8.00;92.00;;;;;;5030078;28;20111;-74
2020/12/13 11:08:10;;;;;;;15.32;4.40;;;7.90;92.20;;;;;;5030547;28;20096;-75
2020/12/13 11:10:36;;;;;;;11.10;4.00;;;8.00;91.70;;;;;;5027611;28;20099;-75
2020/12/13 11:13:03;;;;;;;14.23;4.78;;;8.20;91.30;;;;;;5029781;28;20124;-74
2020/12/13 11:15:30;;;;;;;11.25;3.50;;;8.50;91.40;;;;;;5030270;28;20119;-73
2020/12/13 11:17:56;;;;;;;11.40;3.75;;;8.70;89.30;;;;;;5028712;28;20123;-75
2020/12/13 11:20:22;;;;;;;13.45;3.42;;;8.70;90.20;;;;;;5029748;28;20242;-73
2020/12/13 11:22:49;;;;;;;9.20;2.75;;;8.70;90.20;;;;;;5029182;28;20141;-74
2020/12/13 11:25:16;;;;;;;10.98;3.28;;;8.60;90.80;;;;;;5029413;28;20386;-75
2020/12/13 11:27:43;;;;;;;11.52;3.20;;;8.50;89.80;;;;;;5028374;28;20124;-74
2020/12/13 11:30:10;;;;;;;8.48;3.17;;;8.00;91.00;;;;;;5030057;28;20041;-74
2020/12/13 11:32:38;;;;;;;6.50;2.83;;;7.60;91.20;;;;;;5029867;28;20135;-74
2020/12/13 11:35:05;;;;;;;17.73;6.18;;;7.50;91.70;;;;;;5030185;28;20084;-75
2020/12/13 11:37:32;;;;;;;12.52;3.13;;;7.30;92.50;;;;;;5029746;28;20480;-74
2020/12/13 11:39:58;;;;;;;14.43;3.70;;;7.20;92.80;;;;;;5030476;28;20099;-74
2020/12/13 11:42:25;;;;;;;12.00;4.35;;;7.20;92.70;;;;;;5030546;28;20052;-74
2020/12/13 11:44:52;;;;;;;12.75;4.53;;;7.10;92.50;;;;;;5029392;28;20107;-75
2020/12/13 11:47:18;;;;;;;12.98;4.28;;;6.90;92.50;;;;;;5030569;28;20049;-74
2020/12/13 11:49:45;;;;;;;10.95;4.45;;;6.90;92.70;;;;;;5030309;28;20164;-75
2020/12/13 11:52:11;;;;;;;12.80;4.68;;;6.90;93.10;;;;;;5030397;28;20178;-75
2020/12/13 11:54:38;;;;;;;9.00;3.15;;;7.00;93.00;;;;;;5030071;28;20108;-74
2020/12/13 11:57:05;;;;;;;10.60;4.10;;;7.00;92.30;;;;;;5029701;28;20064;-75
2020/12/13 11:59:31;;;;;;;9.10;2.40;;;7.10;91.90;;;;;;5029170;28;20038;-74
2020/12/13 12:01:58;;;;;;;12.20;4.20;;;7.10;90.50;;;;;;5027048;28;20088;-74
2020/12/13 12:04:25;;;;;;;9.43;2.65;;;7.00;91.60;;;;;;5028924;28;20049;-74
2020/12/13 12:06:52;;;;;;;9.02;3.53;;;6.80;91.00;;;;;;5029190;28;20471;-74
2020/12/13 12:09:19;;;;;;;12.35;2.85;;;6.80;91.00;;;;;;5028636;28;20148;-74
2020/12/13 12:11:45;;;;;;;11.50;2.83;;;6.70;91.60;;;;;;5029396;28;20061;-74
2020/12/13 12:14:12;;;;;;;7.82;1.88;;;6.50;92.10;;;;;;5030048;28;20073;-73
2020/12/13 12:16:41;;;;;;;8.23;2.90;;;6.40;91.70;;;;;;5028857;28;20136;-74
2020/12/13 12:19:09;;;;;;;11.07;3.78;;;6.50;92.30;;;;;;5026877;28;20060;-74
2020/12/13 12:21:37;;;;;;;12.65;3.95;;;6.60;92.50;;;;;;5024696;28;20188;-74
2020/12/13 12:24:04;;;;;;;10.63;4.50;;;6.90;92.80;;;;;;5026265;28;20470;-74
2020/12/13 12:26:32;;;;;;;12.93;4.80;;;7.10;92.90;;;;;;5026574;28;20095;-73
2020/12/13 12:28:59;;;;;;;14.90;4.40;;;7.40;92.20;;;;;;5042936;28;20471;-74
2020/12/13 12:31:26;;;;;;;20.17;4.13;;;7.40;91.90;;;;;;5025342;28;20076;-73
2020/12/13 12:33:57;;;;;;;13.70;4.95;;;7.60;91.60;;;;;;5028819;28;20053;-74
2020/12/13 12:36:25;;;;;;;12.38;4.72;;;7.60;92.30;;;;;;5028482;28;20057;-74
2020/12/13 12:38:52;;;;;;;15.77;4.22;;;7.40;91.60;;;;;;5027281;28;20046;-74
2020/12/13 12:41:22;;;;;;;13.23;3.22;;;7.30;91.40;;;;;;5028150;28;20068;-74
2020/12/13 12:43:50;;;;;;;12.50;3.60;;;7.00;91.10;;;;;;5027925;28;20132;-74
2020/12/13 12:46:18;;;;;;;7.57;2.60;;;7.00;91.10;;;;;;5028493;28;20180;-74
2020/12/13 12:48:47;;;;;;;11.13;4.22;;;6.90;91.20;;;;;;5027918;28;20418;-74
2020/12/13 12:51:16;;;;;;;6.30;2.58;;;6.80;92.20;;;;;;5027939;28;20144;-74
2020/12/13 12:53:43;;;;;;;13.18;3.30;;;6.60;90.90;;;;;;5026860;28;20495;-75
2020/12/13 12:56:10;;;;;;;4.25;1.73;;;6.80;91.30;;;;;;5027110;28;20053;-73
2020/12/13 13:01:11;;;;;;;9.50;2.10;;;6.60;90.20;;;;;;5028011;28;20045;-73
2020/12/13 13:03:40;;;;;;;8.18;2.22;;;6.50;90.90;;;;;;5028152;28;20079;-73